Time;durP1;ratioP1;P1;durP2;ratioP2;P2;SDS_P1;SDS_P2;PMS_P1;PMS_P2;Temp;Humidity;BMP_temperature;BMP_pressure;BME280_temperature;BME280_humidity;BME280_pressure;Samples;Min_cycle;Max_cycle;Signal;HPM_P1;HPM_P2
2024/01/31 00:04:45;;;;;;;36.57;17.43;;;;;;;4.94;100.00;101867.59;4947619;58;1140596;-80
2024/01/31 00:09:50;;;;;;;33.30;17.40;;;;;;;4.90;100.00;101874.70;4940743;57;1140645;-79
2024/01/31 00:14:56;;;;;;;34.60;18.77;;;;;;;4.88;100.00;101875.23;4884589;59;1140949;-79
2024/01/31 00:20:02;;;;;;;32.70;17.57;;;;;;;4.86;100.00;101877.48;4865468;59;1140970;-80
2024/01/31 00:25:08;;;;;;;38.83;16.97;;;;;;;4.84;100.00;101881.47;4865726;59;1140801;-80
2024/01/31 00:30:14;;;;;;;35.10;17.10;;;;;;;4.83;100.00;101879.75;4885623;57;1141027;-80
2024/01/31 00:35:19;;;;;;;28.93;14.63;;;;;;;4.85;100.00;101878.39;4887819;58;1140776;-80
2024/01/31 00:40:25;;;;;;;30.47;16.30;;;;;;;4.83;100.00;101874.96;4919662;58;1140530;-80
2024/01/31 00:45:31;;;;;;;32.57;16.37;;;;;;;4.80;100.00;101869.36;4991061;57;1140694;-79
2024/01/31 00:50:37;;;;;;;29.50;16.20;;;;;;;4.79;100.00;101879.89;5021575;56;1140718;-80
2024/01/31 00:55:42;;;;;;;32.15;16.57;;;;;;;4.77;100.00;101873.83;5117609;56;1140534;-80
2024/01/31 01:00:48;;;;;;;36.77;16.10;;;;;;;4.73;100.00;101871.78;5134697;56;1140537;-80
2024/01/31 01:05:54;;;;;;;34.10;17.10;;;;;;;4.71;100.00;101876.22;5129343;56;1140928;-79
2024/01/31 01:10:59;;;;;;;27.13;14.93;;;;;;;4.69;100.00;101879.78;5073538;56;1140656;-79
2024/01/31 01:16:05;;;;;;;32.07;16.30;;;;;;;4.70;100.00;101874.50;5118040;56;1140632;-80
2024/01/31 01:21:11;;;;;;;31.40;15.80;;;;;;;4.67;100.00;101864.11;5138575;56;1141101;-80
2024/01/31 01:26:16;;;;;;;29.57;16.00;;;;;;;4.68;100.00;101861.89;5112577;56;1141099;-80
2024/01/31 01:31:22;;;;;;;31.37;16.47;;;;;;;4.69;100.00;101859.68;5055928;56;1140892;-80
2024/01/31 01:36:28;;;;;;;30.63;17.00;;;;;;;4.72;100.00;101852.18;5052960;57;1141389;-79
2024/01/31 01:41:33;;;;;;;29.80;15.43;;;;;;;4.69;100.00;101861.44;5100049;56;1141024;-79
2024/01/31 01:46:39;;;;;;;33.40;17.63;;;;;;;4.70;100.00;101862.70;5053339;56;1140901;-79
2024/01/31 01:51:45;;;;;;;29.95;16.95;;;;;;;4.71;100.00;101864.88;5053641;56;1140909;-80
2024/01/31 01:56:51;;;;;;;34.03;17.83;;;;;;;4.68;100.00;101869.75;5073710;56;1140708;-80
2024/01/31 02:01:58;;;;;;;30.13;17.47;;;;;;;4.68;100.00;101867.59;5053386;56;1140793;-80
2024/01/31 02:07:04;;;;;;;29.63;13.80;;;;;;;4.64;100.00;101867.27;5053241;56;1140748;-79
2024/01/31 02:12:11;;;;;;;30.67;16.13;;;;;;;4.65;100.00;101863.30;5025930;56;1140589;-80
2024/01/31 02:17:16;;;;;;;32.30;17.00;;;;;;;4.66;100.00;101878.11;4966736;57;1140904;-80
2024/01/31 02:22:22;;;;;;;31.33;15.53;;;;;;;4.71;100.00;101873.59;4983011;57;1140439;-79
2024/01/31 02:27:28;;;;;;;26.03;15.07;;;;;;;4.72;100.00;101877.93;5053867;56;1140485;-79
2024/01/31 02:32:33;;;;;;;32.70;17.13;;;;;;;4.76;100.00;101873.42;5073330;56;1140525;-79
2024/01/31 02:37:43;;;;;;;30.50;17.30;;;;;;;4.79;100.00;101869.41;5053225;56;1141291;-80
2024/01/31 02:42:49;;;;;;;31.43;14.97;;;;;;;4.80;100.00;101858.02;5079067;56;1140802;-79
2024/01/31 02:47:55;;;;;;;26.82;14.53;;;;;;;4.80;100.00;101856.70;5146386;56;1140666;-79
2024/01/31 02:53:02;;;;;;;25.27;15.60;;;;;;;4.83;100.00;101853.53;5053163;56;1140648;-79
2024/01/31 02:58:08;;;;;;;28.50;15.50;;;;;;;4.87;100.00;101854.30;5077381;56;1140461;-79
2024/01/31 03:03:13;;;;;;;35.97;15.70;;;;;;;4.92;100.00;101851.91;5107487;56;1140591;-79
2024/01/31 03:08:19;;;;;;;34.80;15.50;;;;;;;4.97;100.00;101860.95;5033938;56;1140962;-79
2024/01/31 03:13:25;;;;;;;28.03;15.83;;;;;;;4.99;100.00;101854.34;4920472;57;1140635;-79
2024/01/31 03:18:30;;;;;;;31.80;15.45;;;;;;;4.99;100.00;101864.38;5005556;56;1140677;-79
2024/01/31 03:23:36;;;;;;;29.63;16.17;;;;;;;4.98;100.00;101857.42;5107949;56;1140510;-79
2024/01/31 03:28:41;;;;;;;30.93;15.23;;;;;;;4.95;100.00;101848.34;5087622;56;1141239;-79
2024/01/31 03:33:47;;;;;;;26.27;15.33;;;;;;;4.96;100.00;101844.81;5044784;57;1140572;-79
2024/01/31 03:38:54;;;;;;;81.95;28.90;;;;;;;4.97;100.00;101838.66;5062653;56;1140998;-80
2024/01/31 03:43:59;;;;;;;31.23;15.70;;;;;;;4.99;100.00;101834.23;5009558;57;1140949;-80
2024/01/31 03:49:05;;;;;;;25.93;14.23;;;;;;;5.00;100.00;101830.70;5004881;57;1140785;-80
2024/01/31 03:54:10;;;;;;;28.23;16.00;;;;;;;5.04;100.00;101836.22;5024410;57;1140631;-79
2024/01/31 03:59:16;;;;;;;28.73;15.00;;;;;;;5.06;100.00;101843.59;5030598;57;1140905;-80
2024/01/31 04:04:22;;;;;;;30.60;15.23;;;;;;;5.10;100.00;101853.52;5004289;57;1140750;-79
2024/01/31 04:09:27;;;;;;;24.60;13.53;;;;;;;5.11;100.00;101846.06;4992228;56;1140817;-79
2024/01/31 04:14:33;;;;;;;25.17;13.53;;;;;;;5.13;100.00;101846.87;5053345;56;1142981;-79
2024/01/31 04:19:38;;;;;;;23.73;13.83;;;;;;;5.16;100.00;101848.95;5030192;57;1141897;-79
2024/01/31 04:24:45;;;;;;;27.98;13.25;;;;;;;5.20;100.00;101853.16;5030697;57;1143023;-79
2024/01/31 04:29:50;;;;;;;26.02;14.28;;;;;;;5.22;100.00;101853.11;5116882;56;1141163;-79
2024/01/31 04:34:56;;;;;;;27.55;13.62;;;;;;;5.25;100.00;101849.93;5117822;56;1140818;-79
2024/01/31 04:40:02;;;;;;;24.63;13.80;;;;;;;5.27;100.00;101859.92;5112644;56;1143047;-79
2024/01/31 04:45:09;;;;;;;22.90;13.13;;;;;;;5.27;100.00;101856.44;5052704;57;1140493;-79
2024/01/31 04:50:15;;;;;;;25.53;12.73;;;;;;;5.28;100.00;101859.47;5033075;57;1141208;-79
2024/01/31 04:55:21;;;;;;;27.70;13.57;;;;;;;5.28;100.00;101859.47;5033180;57;1143074;-79
2024/01/31 05:00:28;;;;;;;28.43;14.27;;;;;;;5.22;100.00;101855.27;5021313;57;1140916;-79
2024/01/31 05:05:33;;;;;;;22.63;14.43;;;;;;;5.21;100.00;101849.63;5020265;57;1140958;-79
2024/01/31 05:10:42;;;;;;;22.62;13.08;;;;;;;5.23;100.00;101859.61;5033043;56;1140739;-79
2024/01/31 05:15:46;;;;;;;25.87;13.40;;;;;;;5.26;100.00;101860.83;5067199;56;1142985;-79
2024/01/31 05:20:52;;;;;;;20.30;12.97;;;;;;;5.26;100.00;101858.20;5092466;55;1140811;-78
2024/01/31 05:25:58;;;;;;;23.73;13.57;;;;;;;5.26;100.00;101866.07;5074571;56;1140630;-80
2024/01/31 05:31:04;;;;;;;25.07;11.37;;;;;;;5.25;100.00;101868.30;5083198;56;1140515;-80
2024/01/31 05:36:10;;;;;;;25.77;12.47;;;;;;;5.25;100.00;101873.98;5102567;57;1140734;-79
2024/01/31 05:41:15;;;;;;;25.57;12.43;;;;;;;5.26;100.00;101885.74;5057743;56;1140789;-80
2024/01/31 05:46:21;;;;;;;22.27;12.10;;;;;;;5.29;100.00;101876.47;4999301;57;1140740;-79
2024/01/31 05:51:26;;;;;;;23.37;13.53;;;;;;;5.30;100.00;101878.18;4999804;56;1140788;-80
2024/01/31 05:56:34;;;;;;;25.30;12.85;;;;;;;5.33;100.00;101881.16;5018563;58;1140775;-79
2024/01/31 06:01:40;;;;;;;23.23;12.10;;;;;;;5.33;100.00;101877.68;5065485;57;1140804;-80
2024/01/31 06:06:45;;;;;;;25.87;13.27;;;;;;;5.34;100.00;101881.56;5131847;55;1140561;-80
2024/01/31 06:11:57;;;;;;;27.80;12.03;;;;;;;5.38;100.00;101880.98;5152049;56;1140754;-80
2024/01/31 06:23:39;;;;;;;;;;;;;;;;;;;;;
2024/01/31 06:35:53;;;;;;;;;;;;;;;;;;;;;
2024/01/31 06:52:22;;;;;;;31.27;12.30;;;;;;;5.51;100.00;101891.00;5202569;55;46779;-79
2024/01/31 06:57:29;;;;;;;14.83;9.03;;;;;;;5.47;100.00;101897.73;4982049;57;1136701;-79
2024/01/31 07:02:36;;;;;;;18.27;10.63;;;;;;;5.47;100.00;101909.09;5021849;58;1138866;-78
2024/01/31 07:14:21;;;;;;;;;;;;;;;;;;;;;
2024/01/31 07:36:17;;;;;;;23.70;11.85;;;;;;;5.58;100.00;101941.06;4951499;56;1136831;-77
2024/01/31 07:41:23;;;;;;;16.83;9.60;;;;;;;5.61;100.00;101942.28;4918495;57;1140722;-77
2024/01/31 07:46:30;;;;;;;17.07;10.50;;;;;;;5.62;100.00;101941.38;4792532;59;1138602;-77
2024/01/31 07:51:45;;;;;;;18.47;10.77;;;;;;;5.65;100.00;101940.41;4840688;58;1141113;-77
2024/01/31 07:56:51;;;;;;;17.10;9.43;;;;;;;5.68;100.00;101952.09;4889005;57;1140919;-77
2024/01/31 08:01:56;;;;;;;20.90;9.90;;;;;;;5.71;100.00;101949.37;4909398;57;1138869;-77
2024/01/31 08:07:02;;;;;;;18.13;9.70;;;;;;;5.75;100.00;101952.75;4925146;58;1138605;-77
2024/01/31 08:12:09;;;;;;;14.00;9.07;;;;;;;5.80;100.00;101957.40;4959863;56;1138594;-77
2024/01/31 08:17:14;;;;;;;14.70;8.50;;;;;;;5.85;100.00;101954.99;5008691;56;1138924;-77
2024/01/31 08:22:20;;;;;;;12.28;6.87;;;;;;;5.90;100.00;101958.81;4931828;58;1138509;-77
2024/01/31 08:27:25;;;;;;;12.10;7.10;;;;;;;5.94;100.00;101960.42;4928546;57;1138915;-77
2024/01/31 08:32:35;;;;;;;10.53;5.85;;;;;;;5.98;100.00;101962.01;4918792;57;1138630;-77
2024/01/31 08:37:41;;;;;;;10.53;6.67;;;;;;;6.02;100.00;101970.64;4939209;57;1138735;-77
2024/01/31 08:42:46;;;;;;;10.40;5.37;;;;;;;6.03;100.00;101977.16;4886728;57;1138832;-77
2024/01/31 08:47:52;;;;;;;11.13;5.27;;;;;;;6.06;100.00;101976.20;4852603;57;1139079;-77
2024/01/31 08:52:57;;;;;;;13.33;6.10;;;;;;;6.09;100.00;101980.03;4900654;58;1138639;-77
2024/01/31 08:58:03;;;;;;;10.13;5.40;;;;;;;6.11;100.00;101976.41;4903940;57;1138801;-77
2024/01/31 09:03:08;;;;;;;12.10;5.73;;;;;;;6.13;100.00;101974.59;4960899;56;1138660;-77
2024/01/31 09:08:15;;;;;;;5.13;2.80;;;;;;;6.16;100.00;101973.17;4982137;57;1138727;-78
2024/01/31 09:13:20;;;;;;;4.35;3.45;;;;;;;6.18;100.00;101967.42;4972423;56;1136925;-77
2024/01/31 09:18:26;;;;;;;3.17;2.60;;;;;;;6.21;100.00;101966.45;4931910;56;1136628;-77
2024/01/31 09:23:31;;;;;;;3.40;2.77;;;;;;;6.23;100.00;101965.49;4963607;56;1136664;-77
2024/01/31 09:28:37;;;;;;;4.13;2.60;;;;;;;6.24;100.00;101971.60;5030960;56;1136681;-77
2024/01/31 09:33:43;;;;;;;5.33;2.47;;;;;;;6.24;100.00;101975.09;4915358;57;1136807;-77
2024/01/31 09:38:49;;;;;;;3.03;2.70;;;;;;;6.28;100.00;101984.55;4848646;59;1136945;-77
2024/01/31 09:43:55;;;;;;;5.10;2.63;;;;;;;6.29;100.00;101980.16;4800636;60;1137050;-77
2024/01/31 09:49:01;;;;;;;4.30;2.70;;;;;;;6.31;100.00;101980.95;4797239;60;1136744;-77
